Mausdale, Pennsylvania
Current Conditions -  °F | °C
As of 6:53 PM on Sunday 25 Jan 2015 (Local Time) from KSEG Reporting Station
Overcast Overcast  
Wind Chill: 35°   Ceiling: 6000
Heat Index: 35°   Visibility: 10mi
Dew Point: 25°   Wind: 3mph
Humidity: 67%   Direction: 360°N
Pressure: 29.88"   Gusts: NA
Location:  41.0117°N, 76.6578°W
Report Text: KSEG 252353Z AUTO 36003KT 10SM SCT038 BKN060 OVC070 02/M04 A2988 RMK AO2 SLP122 T00171039 10039 20017 53021
Loading
Personal Weather Stations






























Interactive Weather Map New forecast layout! Learn more

10-Day Weather Forecast

Advertisements
Track Severe Weather on mobile